Time;durP1;ratioP1;P1;durP2;ratioP2;P2;SDS_P1;SDS_P2;PMS_P1;PMS_P2;Temp;Humidity;BMP_temperature;BMP_pressure;BME280_temperature;BME280_humidity;BME280_pressure;Samples;Min_cycle;Max_cycle;Signal;HPM_P1;HPM_P2
2023/07/02 00:00:59;;;;;;;4.22;1.95;;;17.80;99.90;;;;;;4994387;28;20077;-59
2023/07/02 00:03:25;;;;;;;5.13;2.30;;;17.80;99.90;;;;;;4994369;28;20034;-57
2023/07/02 00:05:54;;;;;;;5.53;2.22;;;17.80;99.90;;;;;;4994770;28;20030;-59
2023/07/02 00:08:21;;;;;;;7.30;2.17;;;17.80;99.90;;;;;;4994426;28;20030;-59
2023/07/02 00:10:46;;;;;;;4.65;2.30;;;17.80;99.90;;;;;;4994113;28;20088;-59
2023/07/02 00:13:12;;;;;;;5.35;2.22;;;17.90;99.90;;;;;;4994357;28;20125;-58
2023/07/02 00:15:38;;;;;;;7.68;2.45;;;17.90;99.90;;;;;;4994774;28;20031;-58
2023/07/02 00:18:03;;;;;;;5.88;2.65;;;17.80;99.90;;;;;;4994928;28;20368;-58
2023/07/02 00:20:30;;;;;;;5.03;2.50;;;17.90;99.90;;;;;;4994719;28;20120;-58
2023/07/02 00:22:56;;;;;;;8.80;2.80;;;17.80;99.90;;;;;;4993880;28;20121;-59
2023/07/02 00:25:22;;;;;;;6.97;2.83;;;17.80;99.90;;;;;;4994367;28;20115;-59
2023/07/02 00:27:47;;;;;;;5.53;2.85;;;17.90;99.90;;;;;;4994489;28;20110;-58
2023/07/02 00:30:13;;;;;;;4.00;2.40;;;17.90;99.90;;;;;;4976290;28;20432;-59
2023/07/02 00:32:39;;;;;;;8.13;2.60;;;17.90;99.90;;;;;;4976109;28;20046;-58
2023/07/02 00:35:05;;;;;;;5.15;2.10;;;17.90;99.90;;;;;;4976051;28;20168;-59
2023/07/02 00:37:31;;;;;;;5.55;2.85;;;17.90;99.90;;;;;;4975979;28;20062;-57
2023/07/02 00:39:57;;;;;;;5.85;2.30;;;17.80;99.90;;;;;;4993335;28;20030;-59
2023/07/02 00:42:23;;;;;;;7.95;2.45;;;17.80;99.90;;;;;;4993169;28;20030;-57
2023/07/02 00:44:52;;;;;;;5.22;2.45;;;17.70;99.90;;;;;;4992988;28;20026;-57
2023/07/02 00:47:18;;;;;;;4.90;2.28;;;17.80;99.90;;;;;;4993170;28;20398;-59
2023/07/02 00:49:44;;;;;;;7.05;2.53;;;17.80;99.90;;;;;;4993196;28;20026;-53
2023/07/02 00:52:10;;;;;;;5.90;2.33;;;17.70;99.90;;;;;;4992739;28;20089;-58
2023/07/02 00:54:36;;;;;;;6.53;2.38;;;17.70;99.90;;;;;;4975411;28;20426;-58
2023/07/02 00:57:02;;;;;;;4.30;2.25;;;17.70;99.90;;;;;;4974999;28;20058;-59
2023/07/02 00:59:29;;;;;;;6.60;2.33;;;17.70;99.90;;;;;;4992908;28;20061;-58
2023/07/02 01:01:56;;;;;;;5.28;2.58;;;17.60;99.90;;;;;;4992645;28;20069;-56
2023/07/02 01:04:27;;;;;;;7.85;3.05;;;17.60;99.90;;;;;;4992750;28;20031;-58
2023/07/02 01:06:57;;;;;;;5.88;2.75;;;17.50;99.90;;;;;;4975371;28;20030;-57
2023/07/02 01:09:26;;;;;;;6.82;2.88;;;17.60;99.90;;;;;;4975210;28;20466;-58
2023/07/02 01:12:01;;;;;;;7.38;2.92;;;17.50;99.90;;;;;;4992443;28;20478;-55
2023/07/02 01:14:31;;;;;;;6.78;2.88;;;17.50;99.90;;;;;;4992535;28;20062;-58
2023/07/02 01:16:58;;;;;;;8.45;2.97;;;17.50;99.90;;;;;;4975165;28;20034;-56
2023/07/02 01:19:53;;;;;;;5.97;3.28;;;17.50;99.90;;;;;;4975010;28;20125;-58
2023/07/02 01:22:27;;;;;;;7.22;3.25;;;17.50;99.90;;;;;;4992111;28;20038;-58
2023/07/02 01:24:55;;;;;;;6.95;3.42;;;17.50;99.90;;;;;;4974895;28;20525;-58
2023/07/02 01:27:21;;;;;;;10.95;3.70;;;17.40;99.90;;;;;;4992404;28;20032;-58
2023/07/02 01:29:50;;;;;;;9.68;3.53;;;17.30;99.90;;;;;;4974811;28;20042;-59
2023/07/02 01:32:16;;;;;;;;;;;17.20;99.90;;;;;;4975022;28;20036;-58
2023/07/02 01:34:43;;;;;;;7.60;3.25;;;17.20;99.90;;;;;;4974575;28;19909;-56
2023/07/02 01:37:09;;;;;;;8.57;3.47;;;17.20;99.90;;;;;;4992335;28;20392;-58
2023/07/02 01:39:35;;;;;;;9.30;3.50;;;17.10;99.90;;;;;;4974556;28;20057;-59
2023/07/02 01:42:12;;;;;;;12.38;3.38;;;17.10;99.90;;;;;;4991863;28;20491;-58
2023/07/02 01:44:38;;;;;;;7.60;3.70;;;17.10;99.90;;;;;;4974441;28;20068;-58
2023/07/02 01:47:05;;;;;;;9.82;3.83;;;17.10;99.90;;;;;;4974536;28;20074;-59
2023/07/02 01:49:30;;;;;;;8.25;3.38;;;17.10;99.90;;;;;;4974295;28;20030;-58
2023/07/02 01:51:57;;;;;;;9.73;3.70;;;17.00;99.90;;;;;;4974105;28;20084;-55
2023/07/02 01:54:26;;;;;;;9.95;3.13;;;17.10;99.90;;;;;;4991777;28;20030;-58
2023/07/02 01:56:53;;;;;;;11.70;3.80;;;17.10;99.90;;;;;;4974426;28;20085;-58
2023/07/02 01:59:18;;;;;;;6.45;3.00;;;17.10;99.90;;;;;;4974306;28;20037;-58
2023/07/02 02:01:44;;;;;;;9.20;3.13;;;17.10;99.90;;;;;;4974175;28;20121;-59
2023/07/02 02:04:10;;;;;;;10.07;3.80;;;17.00;99.90;;;;;;4991302;28;20054;-58
2023/07/02 02:06:38;;;;;;;11.25;3.50;;;17.00;99.90;;;;;;4974261;28;20406;-58
2023/07/02 02:09:05;;;;;;;7.90;3.10;;;17.00;99.90;;;;;;4973312;28;20026;-57
2023/07/02 02:11:31;;;;;;;9.32;2.78;;;17.00;99.90;;;;;;4991624;28;20467;-58
2023/07/02 02:13:57;;;;;;;7.97;3.33;;;16.90;99.90;;;;;;4973858;28;20029;-59
2023/07/02 02:16:23;;;;;;;9.18;3.50;;;16.90;99.90;;;;;;4974107;28;20034;-59
2023/07/02 02:18:51;;;;;;;8.38;3.17;;;16.80;99.90;;;;;;4991476;28;20073;-59
2023/07/02 02:21:18;;;;;;;8.80;3.38;;;16.80;99.90;;;;;;4974016;28;20038;-59
2023/07/02 02:23:44;;;;;;;10.07;3.40;;;16.70;99.90;;;;;;4973582;28;20034;-59
2023/07/02 02:26:09;;;;;;;7.15;3.45;;;16.70;99.90;;;;;;4973924;28;20113;-59
2023/07/02 02:28:35;;;;;;;9.77;3.67;;;16.80;99.90;;;;;;4974094;28;20036;-58
2023/07/02 02:31:02;;;;;;;8.88;3.72;;;16.80;99.90;;;;;;4973885;28;20042;-59
2023/07/02 02:33:28;;;;;;;10.45;4.10;;;16.80;99.90;;;;;;4973567;28;20031;-59
2023/07/02 02:35:54;;;;;;;9.65;4.07;;;16.80;99.90;;;;;;4991394;28;20041;-59
2023/07/02 02:38:20;;;;;;;12.57;4.35;;;16.80;99.90;;;;;;4973889;28;20037;-59
2023/07/02 02:40:46;;;;;;;11.88;4.97;;;16.80;99.90;;;;;;4973884;28;20030;-59
2023/07/02 02:43:17;;;;;;;14.85;4.45;;;16.80;99.90;;;;;;4973604;28;20062;-59
2023/07/02 02:45:43;;;;;;;12.15;4.70;;;16.80;99.90;;;;;;4974058;28;20030;-59
2023/07/02 02:48:10;;;;;;;11.85;4.25;;;16.80;99.90;;;;;;4974161;28;20042;-59
2023/07/02 02:50:41;;;;;;;14.48;5.00;;;16.80;99.90;;;;;;4991828;28;20023;-59
2023/07/02 02:53:10;;;;;;;9.10;4.47;;;16.90;99.90;;;;;;4990889;28;20487;-59
2023/07/02 02:55:37;;;;;;;12.32;4.57;;;16.90;99.90;;;;;;4991325;28;20023;-59
2023/07/02 02:58:03;;;;;;;11.05;4.72;;;16.80;99.90;;;;;;4991186;28;20390;-59
2023/07/02 03:00:29;;;;;;;13.20;5.32;;;16.90;99.90;;;;;;4991224;28;20034;-59
2023/07/02 03:02:55;;;;;;;12.45;4.68;;;16.90;99.90;;;;;;4973263;28;20522;-57
2023/07/02 03:05:21;;;;;;;14.20;5.38;;;16.90;99.90;;;;;;4991096;28;20119;-59
2023/07/02 03:07:47;;;;;;;12.65;5.32;;;16.90;99.90;;;;;;4973844;28;20387;-59
2023/07/02 03:10:13;;;;;;;11.70;4.97;;;16.80;99.90;;;;;;4991070;28;20033;-58
2023/07/02 03:12:39;;;;;;;15.50;5.18;;;16.80;99.90;;;;;;4990485;28;20486;-57
2023/07/02 03:15:05;;;;;;;12.80;4.85;;;16.80;99.90;;;;;;4973662;28;20090;-58
2023/07/02 03:17:31;;;;;;;16.95;5.85;;;16.80;99.90;;;;;;4973670;28;20027;-57
2023/07/02 03:19:57;;;;;;;10.05;5.25;;;16.70;99.90;;;;;;4993143;28;20376;-59
2023/07/02 03:22:22;;;;;;;14.18;4.80;;;16.70;99.90;;;;;;4994275;28;20115;-57
2023/07/02 03:24:48;;;;;;;20.48;6.47;;;16.60;99.90;;;;;;4994631;28;20038;-58
2023/07/02 03:27:13;;;;;;;12.50;5.07;;;16.60;99.90;;;;;;4994692;28;20039;-58
2023/07/02 03:29:39;;;;;;;17.30;5.80;;;16.60;99.90;;;;;;4994607;28;20022;-57
2023/07/02 03:32:05;;;;;;;13.50;5.43;;;16.60;99.90;;;;;;4994383;28;20030;-59
2023/07/02 03:34:30;;;;;;;12.95;5.38;;;16.60;99.90;;;;;;4994331;28;20030;-57
2023/07/02 03:36:56;;;;;;;14.48;5.85;;;16.60;99.90;;;;;;4994518;28;20029;-58
2023/07/02 03:39:22;;;;;;;13.82;5.82;;;16.60;99.90;;;;;;4994393;28;20026;-58
2023/07/02 03:41:47;;;;;;;16.58;6.07;;;16.60;99.90;;;;;;4994184;28;20038;-58
2023/07/02 03:44:13;;;;;;;14.15;5.40;;;16.60;99.90;;;;;;4994284;28;20038;-57
2023/07/02 03:46:39;;;;;;;17.75;5.72;;;16.60;99.90;;;;;;4994323;28;20398;-58
2023/07/02 03:49:04;;;;;;;17.88;6.50;;;16.60;99.90;;;;;;4994318;28;20035;-59
2023/07/02 03:51:31;;;;;;;16.15;7.13;;;16.60;99.90;;;;;;4994086;28;20077;-59
2023/07/02 03:53:58;;;;;;;15.95;6.03;;;16.60;99.90;;;;;;4993860;28;20089;-58
2023/07/02 03:56:24;;;;;;;16.80;6.15;;;16.60;99.90;;;;;;4994166;28;20026;-58
2023/07/02 03:58:50;;;;;;;17.55;5.88;;;16.60;99.90;;;;;;4994118;28;20065;-59
2023/07/02 04:01:15;;;;;;;19.88;6.88;;;16.60;99.90;;;;;;4993953;28;20026;-58
2023/07/02 04:03:52;;;;;;;17.95;6.85;;;16.60;99.90;;;;;;4993564;28;20125;-58
2023/07/02 04:06:18;;;;;;;17.95;6.20;;;16.60;99.90;;;;;;4994303;28;20073;-58
2023/07/02 04:08:44;;;;;;;14.45;5.75;;;16.50;99.90;;;;;;4993893;28;20053;-59
2023/07/02 04:11:10;;;;;;;16.85;6.50;;;16.50;99.90;;;;;;4993778;28;20038;-59
2023/07/02 04:13:36;;;;;;;19.95;6.90;;;16.60;99.90;;;;;;4993349;28;20026;-59
2023/07/02 04:16:02;;;;;;;16.58;6.80;;;16.60;99.90;;;;;;4993771;28;20026;-59
2023/07/02 04:18:29;;;;;;;18.25;6.78;;;16.60;99.90;;;;;;4993727;28;20033;-54
2023/07/02 04:20:55;;;;;;;20.85;7.00;;;16.60;99.90;;;;;;4993608;28;20153;-58
2023/07/02 04:23:20;;;;;;;18.70;6.28;;;16.50;99.90;;;;;;4993376;28;20109;-58
2023/07/02 04:25:46;;;;;;;18.33;7.40;;;16.50;99.90;;;;;;4993552;28;20111;-59
2023/07/02 04:28:11;;;;;;;15.88;7.05;;;16.60;99.90;;;;;;4993657;28;20057;-59
2023/07/02 04:30:37;;;;;;;16.52;6.53;;;16.60;99.90;;;;;;4992664;28;20034;-58
2023/07/02 04:33:03;;;;;;;21.50;7.32;;;16.50;99.90;;;;;;4993036;28;20065;-57
2023/07/02 04:35:28;;;;;;;20.73;7.03;;;16.50;99.90;;;;;;4993410;28;20506;-59
2023/07/02 04:37:54;;;;;;;18.65;6.15;;;16.60;99.90;;;;;;4993522;28;20062;-59
2023/07/02 04:40:20;;;;;;;19.67;6.65;;;16.50;99.90;;;;;;4993796;28;20034;-58
2023/07/02 04:42:49;;;;;;;19.02;7.38;;;16.60;99.90;;;;;;4992949;28;20036;-58
2023/07/02 04:45:15;;;;;;;18.83;7.05;;;16.60;99.90;;;;;;4993395;28;20022;-59
2023/07/02 04:47:45;;;;;;;19.90;7.50;;;16.60;99.90;;;;;;4993350;28;20499;-59
2023/07/02 04:50:11;;;;;;;17.88;6.72;;;16.70;99.90;;;;;;4993461;28;20053;-58
2023/07/02 04:52:38;;;;;;;19.23;7.88;;;16.70;99.90;;;;;;4992848;28;20398;-58
2023/07/02 04:55:04;;;;;;;18.58;7.47;;;16.70;99.90;;;;;;4993249;28;20045;-56
2023/07/02 04:57:30;;;;;;;20.63;8.30;;;16.80;99.90;;;;;;4993143;28;20031;-58
2023/07/02 04:59:56;;;;;;;21.45;8.52;;;16.80;99.90;;;;;;4993214;28;20092;-58
2023/07/02 05:02:21;;;;;;;16.80;7.10;;;16.80;99.90;;;;;;4992938;28;20235;-57
2023/07/02 05:04:47;;;;;;;20.55;7.50;;;16.80;99.90;;;;;;4992772;28;20030;-57
2023/07/02 05:07:13;;;;;;;17.42;7.22;;;16.80;99.90;;;;;;4993008;28;20037;-58
2023/07/02 05:09:38;;;;;;;18.17;7.38;;;16.80;99.90;;;;;;4992986;28;20049;-58
2023/07/02 05:12:04;;;;;;;20.42;8.25;;;16.90;99.90;;;;;;4992842;28;20034;-58
2023/07/02 05:14:30;;;;;;;20.25;7.60;;;16.90;99.90;;;;;;4992824;28;20034;-58
2023/07/02 05:16:55;;;;;;;20.70;8.05;;;16.90;99.90;;;;;;4993270;28;20026;-54
2023/07/02 05:19:21;;;;;;;19.90;8.20;;;17.00;99.90;;;;;;4992728;28;20125;-58
2023/07/02 05:21:47;;;;;;;16.73;7.43;;;17.00;99.90;;;;;;4992580;28;20061;-56
2023/07/02 05:24:12;;;;;;;19.95;8.77;;;17.00;99.90;;;;;;4992388;28;20068;-56
2023/07/02 05:26:38;;;;;;;17.33;7.75;;;16.90;99.90;;;;;;4992549;28;20487;-58
2023/07/02 05:29:05;;;;;;;19.92;8.23;;;17.00;99.90;;;;;;4992560;28;20050;-56
2023/07/02 05:31:30;;;;;;;17.75;7.65;;;17.00;99.90;;;;;;4992250;28;20407;-54
2023/07/02 05:33:56;;;;;;;19.73;8.50;;;17.10;99.90;;;;;;4992058;28;20077;-55
2023/07/02 05:36:22;;;;;;;16.02;7.68;;;17.20;99.90;;;;;;4992402;28;20022;-57
2023/07/02 05:38:47;;;;;;;23.13;7.82;;;17.20;99.90;;;;;;4992315;28;20030;-57
2023/07/02 05:41:23;;;;;;;20.25;7.82;;;17.30;99.90;;;;;;4974866;28;20030;-58
2023/07/02 05:43:49;;;;;;;21.02;9.02;;;17.30;99.90;;;;;;4991719;28;20038;-58
2023/07/02 05:46:15;;;;;;;22.20;10.00;;;17.40;99.90;;;;;;4992163;28;20587;-55
2023/07/02 05:48:43;;;;;;;24.65;10.88;;;17.30;99.90;;;;;;4991977;28;20180;-54
2023/07/02 05:51:09;;;;;;;23.70;9.90;;;17.40;99.90;;;;;;4991899;28;20060;-57
2023/07/02 05:53:36;;;;;;;24.73;8.20;;;17.40;99.90;;;;;;4991573;28;20042;-59
2023/07/02 05:56:02;;;;;;;22.85;7.28;;;17.50;99.90;;;;;;4992004;28;20026;-58
2023/07/02 05:58:29;;;;;;;23.27;8.57;;;17.60;99.90;;;;;;4991911;28;20040;-57
2023/07/02 06:00:55;;;;;;;19.17;7.47;;;17.70;99.90;;;;;;4991957;28;20038;-55
2023/07/02 06:03:21;;;;;;;15.73;7.55;;;17.70;99.90;;;;;;4991304;28;20038;-59
2023/07/02 06:05:50;;;;;;;19.60;7.70;;;17.80;99.90;;;;;;4991667;28;20040;-54
2023/07/02 06:08:16;;;;;;;18.42;7.38;;;17.90;99.90;;;;;;4992137;28;20034;-57
2023/07/02 06:10:43;;;;;;;17.27;6.70;;;17.90;99.90;;;;;;4992102;28;20125;-55
2023/07/02 06:13:09;;;;;;;19.17;6.60;;;17.80;99.90;;;;;;4991139;28;20482;-56
2023/07/02 06:15:35;;;;;;;21.17;7.60;;;17.90;99.90;;;;;;4991674;28;20109;-59
2023/07/02 06:18:00;;;;;;;16.63;6.63;;;18.00;99.90;;;;;;4991394;28;20402;-56
2023/07/02 06:20:26;;;;;;;18.80;6.95;;;18.10;99.90;;;;;;4991464;28;20041;-57
2023/07/02 06:22:51;;;;;;;17.88;6.75;;;18.10;99.90;;;;;;4991137;28;20093;-57
2023/07/02 06:25:17;;;;;;;14.50;5.95;;;18.30;99.90;;;;;;4991592;28;20049;-55
2023/07/02 06:27:43;;;;;;;20.23;7.70;;;18.30;99.90;;;;;;4991572;28;20034;-59
2023/07/02 06:30:09;;;;;;;22.80;7.60;;;18.30;99.90;;;;;;4991513;28;20528;-54
2023/07/02 06:32:34;;;;;;;19.20;6.60;;;18.30;99.90;;;;;;4973250;28;20041;-57
2023/07/02 06:35:00;;;;;;;17.90;6.80;;;18.30;99.90;;;;;;4991337;28;20058;-57
2023/07/02 06:37:25;;;;;;;20.63;6.97;;;18.30;99.90;;;;;;4991391;28;20022;-58
2023/07/02 06:39:51;;;;;;;17.63;5.88;;;18.30;99.90;;;;;;4991374;28;20499;-56
2023/07/02 06:42:17;;;;;;;17.80;6.57;;;18.40;99.90;;;;;;4991067;28;20109;-59
2023/07/02 06:44:43;;;;;;;16.45;6.30;;;18.60;99.90;;;;;;4973622;28;20054;-57
2023/07/02 06:47:09;;;;;;;16.02;6.72;;;18.70;99.90;;;;;;4991274;28;20482;-58
2023/07/02 06:49:36;;;;;;;18.67;5.85;;;18.80;99.90;;;;;;4991245;28;20631;-55
2023/07/02 06:52:01;;;;;;;19.25;6.88;;;18.80;99.90;;;;;;4991329;28;20038;-55
2023/07/02 06:54:27;;;;;;;16.33;5.57;;;18.90;99.90;;;;;;4992696;28;20125;-58
2023/07/02 06:56:53;;;;;;;17.50;5.97;;;18.90;99.90;;;;;;4995383;28;20399;-59
2023/07/02 06:59:22;;;;;;;16.35;6.40;;;18.90;99.90;;;;;;4995377;28;20425;-58
2023/07/02 07:01:49;;;;;;;15.50;6.57;;;18.80;99.90;;;;;;4995048;28;20525;-58
2023/07/02 07:04:15;;;;;;;19.00;7.45;;;18.90;99.90;;;;;;4995022;28;20038;-56
2023/07/02 07:06:41;;;;;;;16.05;6.40;;;18.90;99.90;;;;;;4995245;28;20076;-57
2023/07/02 07:09:06;;;;;;;17.10;7.63;;;18.90;99.90;;;;;;4995053;28;20030;-58
2023/07/02 07:11:32;;;;;;;14.85;6.68;;;18.80;99.90;;;;;;4977313;28;20491;-59
2023/07/02 07:13:57;;;;;;;17.83;6.57;;;18.80;99.90;;;;;;4994776;28;20279;-58
2023/07/02 07:16:23;;;;;;;17.65;6.60;;;18.90;99.90;;;;;;4994958;28;20026;-59
2023/07/02 07:18:49;;;;;;;18.65;7.07;;;19.00;99.90;;;;;;4994678;28;20034;-59
2023/07/02 07:21:15;;;;;;;19.73;7.18;;;19.30;99.90;;;;;;4995049;28;20042;-59
2023/07/02 07:23:40;;;;;;;18.67;7.57;;;19.40;99.90;;;;;;4977008;28;20387;-58
2023/07/02 07:26:06;;;;;;;18.58;7.80;;;19.30;99.90;;;;;;4994782;28;20475;-59
2023/07/02 07:28:32;;;;;;;19.45;7.03;;;19.30;99.90;;;;;;4994830;28;20037;-58
2023/07/02 07:30:57;;;;;;;13.77;5.22;;;19.40;99.90;;;;;;4977121;28;20069;-59
2023/07/02 07:33:23;;;;;;;13.48;5.65;;;19.50;99.90;;;;;;4994112;28;20117;-59
2023/07/02 07:35:49;;;;;;;12.60;5.50;;;19.50;99.90;;;;;;4994616;28;20027;-59
2023/07/02 07:38:14;;;;;;;11.65;4.95;;;19.40;97.50;;;;;;4994727;28;20026;-59
2023/07/02 07:40:40;;;;;;;15.57;4.97;;;19.40;96.50;;;;;;4994522;28;20038;-57
2023/07/02 07:43:06;;;;;;;67.18;32.60;;;19.30;96.10;;;;;;4994095;28;20035;-59
2023/07/02 07:45:33;;;;;;;34.80;15.95;;;19.40;96.30;;;;;;4994385;28;20042;-59
2023/07/02 07:47:58;;;;;;;20.02;8.20;;;19.50;95.70;;;;;;4994669;28;20030;-59
2023/07/02 07:50:24;;;;;;;13.90;5.40;;;19.60;96.00;;;;;;4994599;28;20049;-59
2023/07/02 07:52:51;;;;;;;14.23;5.10;;;19.70;96.00;;;;;;4994196;28;20030;-59
2023/07/02 07:55:17;;;;;;;13.63;5.10;;;19.80;95.20;;;;;;4994509;28;20076;-57
2023/07/02 07:57:42;;;;;;;11.05;4.88;;;19.70;94.70;;;;;;4994361;28;20084;-59
2023/07/02 08:00:11;;;;;;;14.40;5.63;;;19.70;95.50;;;;;;4994110;28;20042;-59
2023/07/02 08:02:46;;;;;;;15.35;5.90;;;19.90;95.30;;;;;;4994015;28;20026;-58
2023/07/02 08:05:12;;;;;;;13.60;5.00;;;20.10;95.20;;;;;;4993405;28;20034;-58
2023/07/02 08:07:40;;;;;;;13.82;4.88;;;20.20;95.10;;;;;;4993782;28;20030;-59
2023/07/02 08:10:07;;;;;;;13.05;4.88;;;20.00;93.30;;;;;;4993946;28;20068;-58
2023/07/02 08:12:33;;;;;;;11.85;4.45;;;20.00;93.80;;;;;;4993609;28;20030;-59
2023/07/02 08:14:59;;;;;;;10.93;4.50;;;20.00;93.60;;;;;;4993824;28;20038;-58
2023/07/02 08:17:24;;;;;;;10.85;4.68;;;19.90;93.80;;;;;;4976322;28;20077;-57
2023/07/02 08:19:50;;;;;;;13.07;4.18;;;19.80;94.80;;;;;;4993900;28;20030;-59
2023/07/02 08:22:16;;;;;;;9.20;4.30;;;19.90;93.80;;;;;;4993660;28;20030;-56
2023/07/02 08:24:41;;;;;;;14.38;5.03;;;20.00;92.70;;;;;;4993574;28;20487;-58
2023/07/02 08:27:07;;;;;;;11.98;4.78;;;20.00;93.20;;;;;;4993728;28;20399;-59
2023/07/02 08:29:32;;;;;;;10.75;4.45;;;20.00;92.00;;;;;;4993401;28;20066;-59
2023/07/02 08:31:58;;;;;;;12.75;4.13;;;19.80;92.30;;;;;;4993210;28;20034;-59
2023/07/02 08:34:24;;;;;;;15.35;4.10;;;19.80;92.00;;;;;;4993388;28;20030;-58
2023/07/02 08:36:51;;;;;;;12.60;4.07;;;19.80;92.40;;;;;;4993602;28;20026;-58
2023/07/02 08:39:17;;;;;;;9.23;4.05;;;19.70;92.50;;;;;;4993388;28;20105;-58
2023/07/02 08:41:44;;;;;;;11.50;4.78;;;19.50;93.00;;;;;;4993218;28;20449;-57
2023/07/02 08:44:11;;;;;;;14.10;4.45;;;19.50;93.50;;;;;;4992802;28;20053;-55
2023/07/02 08:46:37;;;;;;;12.88;3.90;;;19.50;92.40;;;;;;4993335;28;20380;-57
2023/07/02 08:49:03;;;;;;;12.25;3.85;;;19.60;91.30;;;;;;4993357;28;20041;-59
2023/07/02 08:51:28;;;;;;;10.25;3.28;;;19.60;91.60;;;;;;4992987;28;20113;-57
2023/07/02 08:53:54;;;;;;;9.05;3.63;;;19.60;90.70;;;;;;4992859;28;20034;-57
2023/07/02 08:56:20;;;;;;;11.00;3.15;;;19.60;91.20;;;;;;4993166;28;20479;-57
2023/07/02 08:58:45;;;;;;;11.10;3.75;;;19.70;91.00;;;;;;4992908;28;20057;-57
2023/07/02 09:01:13;;;;;;;10.80;4.18;;;20.00;91.60;;;;;;4993335;28;20030;-57
2023/07/02 09:03:40;;;;;;;16.13;5.43;;;20.10;91.60;;;;;;4992492;28;20030;-58
2023/07/02 09:06:07;;;;;;;10.60;5.25;;;20.10;91.60;;;;;;4992991;28;20628;-53
2023/07/02 09:08:36;;;;;;;12.57;5.80;;;20.30;91.50;;;;;;4992942;28;20245;-59
2023/07/02 09:11:19;;;;;;;13.63;5.10;;;20.30;91.50;;;;;;4992887;28;20030;-56
2023/07/02 09:14:00;;;;;;;18.30;7.88;;;20.40;91.20;;;;;;4992357;28;20510;-57
2023/07/02 09:16:31;;;;;;;13.30;4.32;;;20.30;90.90;;;;;;4992434;28;20077;-57
2023/07/02 09:19:05;;;;;;;19.85;8.75;;;20.30;91.00;;;;;;4992866;28;20041;-56
2023/07/02 09:21:47;;;;;;;10.98;5.00;;;20.40;91.20;;;;;;4992342;28;20030;-55
2023/07/02 09:24:21;;;;;;;11.05;5.22;;;20.60;91.60;;;;;;4992246;28;20040;-56
2023/07/02 09:26:51;;;;;;;12.45;4.47;;;20.80;91.20;;;;;;4992737;28;20034;-57
2023/07/02 09:29:50;;;;;;;10.57;4.30;;;20.90;90.80;;;;;;4992556;28;20117;-58
2023/07/02 09:32:25;;;;;;;13.07;4.75;;;20.90;91.70;;;;;;4966978;28;20506;-59
2023/07/02 09:34:51;;;;;;;12.25;5.20;;;20.80;91.30;;;;;;4992158;28;20030;-58
2023/07/02 09:37:17;;;;;;;11.35;4.25;;;20.80;90.90;;;;;;4992367;28;20037;-58
2023/07/02 09:39:43;;;;;;;14.15;5.40;;;20.50;91.10;;;;;;4992386;28;20028;-59
2023/07/02 09:42:10;;;;;;;13.07;5.13;;;20.50;91.00;;;;;;4991861;28;20038;-59
2023/07/02 09:44:36;;;;;;;13.05;4.30;;;20.50;91.00;;;;;;4991859;28;20038;-56
2023/07/02 09:47:06;;;;;;;11.45;4.75;;;20.50;91.30;;;;;;4992194;28;20133;-59
2023/07/02 09:49:37;;;;;;;13.63;4.68;;;20.30;91.50;;;;;;4992416;28;20027;-59
2023/07/02 09:52:09;;;;;;;10.00;4.00;;;20.10;92.10;;;;;;4991757;28;20541;-59
2023/07/02 09:54:36;;;;;;;15.75;5.18;;;20.20;91.60;;;;;;4974502;28;20034;-57
2023/07/02 09:57:02;;;;;;;11.48;4.47;;;20.10;91.50;;;;;;4991864;28;20022;-57
2023/07/02 09:59:29;;;;;;;11.02;4.22;;;20.20;91.50;;;;;;4991927;28;20030;-58
2023/07/02 10:01:55;;;;;;;12.68;4.63;;;20.20;91.20;;;;;;4991658;28;20042;-57
2023/07/02 10:04:25;;;;;;;9.98;3.90;;;20.10;91.20;;;;;;4991874;28;20121;-55
2023/07/02 10:06:53;;;;;;;12.32;4.35;;;20.00;90.60;;;;;;4991934;28;20089;-59
2023/07/02 10:09:20;;;;;;;10.02;3.97;;;19.90;91.20;;;;;;4974484;28;20034;-59
2023/07/02 10:11:46;;;;;;;9.68;4.20;;;19.80;91.10;;;;;;4991393;28;20541;-58
2023/07/02 10:14:12;;;;;;;9.23;3.85;;;20.00;90.30;;;;;;4991754;28;20027;-59
2023/07/02 10:16:51;;;;;;;12.48;4.05;;;20.10;89.80;;;;;;4992022;28;20360;-59
2023/07/02 10:19:17;;;;;;;12.60;4.20;;;20.20;87.30;;;;;;4991802;28;20042;-55
2023/07/02 10:21:45;;;;;;;11.40;3.88;;;20.40;88.70;;;;;;4992278;28;20042;-59
2023/07/02 10:24:11;;;;;;;11.02;3.88;;;20.60;90.40;;;;;;4992048;28;20034;-56
2023/07/02 10:26:37;;;;;;;9.45;3.83;;;20.80;88.50;;;;;;4991724;28;20034;-58
2023/07/02 10:29:03;;;;;;;8.98;3.38;;;20.90;88.80;;;;;;4990941;28;20537;-59
2023/07/02 10:31:28;;;;;;;8.85;3.42;;;21.00;88.00;;;;;;4991315;28;20042;-59
2023/07/02 10:33:54;;;;;;;6.75;3.17;;;21.10;86.70;;;;;;4991149;28;20038;-58
2023/07/02 10:36:23;;;;;;;12.73;4.78;;;21.10;84.50;;;;;;4991500;28;20088;-58
2023/07/02 10:38:49;;;;;;;9.95;3.90;;;21.10;85.90;;;;;;4973937;28;20487;-58
2023/07/02 10:41:44;;;;;;;10.82;3.95;;;20.90;85.40;;;;;;4991366;28;20072;-59
2023/07/02 10:44:11;;;;;;;13.50;5.55;;;20.90;86.50;;;;;;4974529;28;20387;-58
2023/07/02 10:46:46;;;;;;;13.48;3.92;;;20.90;87.40;;;;;;4991412;28;20113;-58
2023/07/02 10:49:13;;;;;;;12.63;4.78;;;20.90;86.70;;;;;;4991783;28;20475;-57
2023/07/02 10:51:38;;;;;;;11.52;4.75;;;20.90;87.60;;;;;;4991033;28;20089;-56
2023/07/02 10:54:05;;;;;;;8.15;3.72;;;20.90;87.80;;;;;;4990969;28;20026;-57
2023/07/02 10:56:31;;;;;;;11.73;3.83;;;21.00;87.30;;;;;;4991117;28;20033;-59
2023/07/02 10:58:57;;;;;;;9.50;4.18;;;20.90;88.30;;;;;;4991150;28;20037;-59
2023/07/02 11:01:30;;;;;;;11.15;4.80;;;20.90;88.30;;;;;;4991027;28;20030;-59
2023/07/02 11:04:06;;;;;;;7.82;3.55;;;20.90;88.80;;;;;;4990818;28;20471;-57
2023/07/02 11:06:33;;;;;;;8.93;3.03;;;21.00;88.40;;;;;;4991205;28;20487;-59
2023/07/02 11:09:00;;;;;;;11.63;3.88;;;20.90;87.50;;;;;;4991395;28;20501;-59
2023/07/02 11:11:25;;;;;;;9.57;4.00;;;20.80;87.20;;;;;;4990903;28;20041;-59
2023/07/02 11:13:52;;;;;;;9.70;3.80;;;20.60;86.50;;;;;;4990679;28;20035;-57
2023/07/02 11:16:26;;;;;;;10.57;3.47;;;20.70;85.70;;;;;;4991114;28;20088;-59
2023/07/02 11:19:10;;;;;;;8.82;3.38;;;20.80;86.50;;;;;;4973484;28;20096;-59
2023/07/02 11:21:36;;;;;;;8.80;4.05;;;20.80;83.40;;;;;;4990984;28;20062;-59
2023/07/02 11:24:08;;;;;;;8.88;3.63;;;21.00;82.70;;;;;;4990727;28;20037;-59
2023/07/02 11:26:41;;;;;;;10.02;3.22;;;20.90;82.30;;;;;;4990794;28;20031;-58
2023/07/02 11:29:17;;;;;;;12.68;6.43;;;20.90;79.60;;;;;;4991256;28;20387;-59
2023/07/02 11:31:43;;;;;;;9.35;3.70;;;21.00;80.70;;;;;;4990704;28;20490;-59
2023/07/02 11:34:17;;;;;;;9.07;3.25;;;21.20;81.80;;;;;;4990632;28;20113;-59
2023/07/02 11:36:42;;;;;;;9.40;3.20;;;21.30;79.70;;;;;;4991038;28;20030;-57
2023/07/02 11:39:08;;;;;;;8.82;3.42;;;21.50;79.10;;;;;;4990580;28;20088;-57
2023/07/02 11:41:38;;;;;;;7.43;3.33;;;21.70;77.50;;;;;;4993527;28;20034;-59
2023/07/02 11:44:04;;;;;;;13.07;3.90;;;21.70;78.90;;;;;;4994013;28;20122;-59
2023/07/02 11:46:30;;;;;;;8.10;3.35;;;21.80;77.40;;;;;;4994333;28;20487;-58
2023/07/02 11:48:56;;;;;;;8.38;3.75;;;21.80;77.60;;;;;;4994278;28;20065;-59
2023/07/02 11:51:21;;;;;;;8.30;3.45;;;21.80;76.00;;;;;;4993442;28;20446;-56
2023/07/02 11:53:47;;;;;;;8.27;3.30;;;21.80;76.50;;;;;;4993967;28;20038;-59
2023/07/02 11:56:13;;;;;;;8.77;3.45;;;21.90;79.80;;;;;;4994242;28;20030;-59
2023/07/02 11:58:39;;;;;;;9.95;3.47;;;21.80;77.50;;;;;;4994150;28;20023;-59
2023/07/02 12:01:05;;;;;;;9.55;3.20;;;21.70;79.30;;;;;;4976872;28;20092;-58
2023/07/02 12:03:31;;;;;;;8.25;4.00;;;21.60;77.60;;;;;;4993768;28;20683;-57
2023/07/02 12:05:57;;;;;;;10.32;3.88;;;21.50;78.70;;;;;;4994130;28;20038;-55
2023/07/02 12:08:22;;;;;;;7.30;3.60;;;21.60;79.60;;;;;;4994036;28;20069;-59
2023/07/02 12:10:48;;;;;;;8.13;4.07;;;21.50;80.40;;;;;;4994021;28;20045;-58
2023/07/02 12:13:14;;;;;;;9.27;3.15;;;21.60;81.10;;;;;;4993409;28;20136;-58
2023/07/02 12:15:39;;;;;;;9.70;3.67;;;21.60;81.80;;;;;;4993974;28;20192;-59
2023/07/02 12:18:05;;;;;;;10.07;3.67;;;21.50;81.10;;;;;;4976334;28;20117;-59
2023/07/02 12:20:31;;;;;;;11.45;3.38;;;21.60;81.90;;;;;;4993866;28;20034;-59
2023/07/02 12:22:57;;;;;;;7.00;3.15;;;21.70;79.20;;;;;;4993323;28;20037;-59
2023/07/02 12:25:23;;;;;;;7.85;3.33;;;21.90;78.80;;;;;;4993740;28;20034;-56
2023/07/02 12:27:48;;;;;;;7.82;3.22;;;21.90;79.60;;;;;;4993740;28;20030;-59
2023/07/02 12:30:17;;;;;;;9.38;3.50;;;21.90;78.30;;;;;;4993606;28;20483;-59
2023/07/02 12:32:44;;;;;;;10.75;3.35;;;21.80;78.60;;;;;;4993272;28;20042;-59
2023/07/02 12:35:10;;;;;;;11.15;3.63;;;22.00;78.80;;;;;;4993559;28;20026;-59
2023/07/02 12:37:42;;;;;;;9.10;3.58;;;22.00;79.10;;;;;;4993475;28;20037;-59
2023/07/02 12:40:08;;;;;;;8.48;3.58;;;22.10;78.10;;;;;;4993534;28;20031;-58